Etusivu
METAR-TAF:

METAR-TAF

Lentoasemat :

Gran Canarian lentoasema

Gran Canaria, Espanja

Leveyspiiri: 27-56N, Pituuspiiri: 015-23W, korkeus merenpinnasta: 23 m

Tämänhetkinen sää

Tämä raportti tehtiin 21 minuuttia sitten, kello 19.00 UTC
Tuuli 18 kn pohjoisesta
Lämpötila 22°C
Kosteus 57%
Ilmanpaine 1017 hPa
Näkyvyys 10 km tai enemmän
Muutamia pilviä 3500 ft:n korkeudessa

METAR: GCLP 201900Z 01018KT 9999 FEW035 22/13 Q1017 NOSIG

Aika: 20:21 (19:21 UTC)

Sääennuste

Tämä raportti tehtiin 5 tuntia ja 21 minuuttia sitten, kello 14.00 UTC
Ennuste voimassa 20. päivästä klo 15 UTC - 21. päivään klo 15 UTC
Tuuli 23 kn pohjoisesta
Näkyvyys 10 km tai enemmän
Hajanaisia pilviä 3000 ft:n korkeudessa
Ajoittain
20. päivästä klo 15 UTC - 20. päivään klo 18 UTC
Tuuli 23 kn pohjoisesta/koillisesta puuskistuen 33 kn:hen

TAF: GCLP 201400Z 2015/2115 01023KT 9999 SCT030 TX23/2015Z TN17/2106Z TEMPO 2015/2018 02023G33KT

Säähavainnot ja -ennusteet yli 4000 lentoasemalta (METAR- ja TAF-raportit).

Käytössä olevat sääasemat on merkitty karttaan keltaisilla ja punaisilla pisteillä.

Aseta hiiri pisteen päälle nähdäksesi sääaseman nimen.

Klikkaa sitten nähdäksesi säähavainnot ja -ennusteet.

Kartan vaihtaminen: klikkaa mustalla rastilla varustettuja vihreitä pisteitä, niin voit zoomata sisään; viivalla varustettua vihreää pistettä, niin voit zoomata ulos tai vihreitä nuolia, niin pääset viereisille kartoille.


METAR-TAF: